M I D A S
Marine Information and Data Acquisition System
Tripno 1575 of the Zeeleeuw from 2008-09-26 06:23:33 to 2008-09-26 16:00:25
Back to CruiseResearch ActivitiesStationsMapUnderway DataData graphs

EquipmentUnitsComment
TimeDGPSUTC
LatitudeDGPSDM.mWGS84
LongitudeDGPSDM.mWGS84
HeadingGyrodeg 
SOGDGPSknotsSpeed over ground
COGDGPSdegCourse over ground
DepthEcho soundermeters200 kHz
Missing or incorrect values are displayed as -999
Navigation data collected by the RV Zeeleeuw from 2008-09-26 06:23:33 to 2008-09-26 16:00:25
                                                                                    Next 1000 lines
Time Latitude Longitude Heading SOG COG Depth
2008-09-26 06:23:50 51°13.636 2°55.973 105.7 2.1 288 -999
2008-09-26 06:24:00 51°13.638 2°55.958 108 3.39 287 -999
2008-09-26 06:24:10 51°13.641 2°55.945 108 3.39 287 -999
2008-09-26 06:24:20 51°13.645 2°55.929 108 3.39 287 -999
2008-09-26 06:24:30 51°13.65 2°55.91 108 3.39 287 -999
2008-09-26 06:24:40 51°13.655 2°55.895 108 3.39 287 -999
2008-09-26 06:24:50 51°13.661 2°55.878 108 3.39 287 -999
2008-09-26 06:25:00 51°13.669 2°55.859 124 4.7 303 -999
2008-09-26 06:25:10 51°13.676 2°55.841 124 4.7 303 -999
2008-09-26 06:25:20 51°13.683 2°55.826 124 4.7 303 -999
2008-09-26 06:25:30 51°13.693 2°55.808 124 4.7 303 -999
2008-09-26 06:25:40 51°13.702 2°55.793 124 4.7 303 -999
2008-09-26 06:25:50 51°13.71 2°55.779 124 4.7 303 -999
2008-09-26 06:26:00 51°13.72 2°55.763 136.8 5 316 -999
2008-09-26 06:26:10 51°13.731 2°55.747 136.8 5 316 -999
2008-09-26 06:26:20 51°13.742 2°55.732 136.8 5 316 -999
2008-09-26 06:26:30 51°13.753 2°55.719 136.8 5 316 -999
2008-09-26 06:26:40 51°13.764 2°55.707 136.8 5 316 -999
2008-09-26 06:26:50 51°13.775 2°55.696 136.8 5 316 -999
2008-09-26 06:27:00 51°13.787 2°55.686 152.4 4.79 333 -999
2008-09-26 06:27:10 51°13.8 2°55.676 152.4 4.79 333 -999
2008-09-26 06:27:20 51°13.81 2°55.668 152.4 4.79 333 -999
2008-09-26 06:27:30 51°13.823 2°55.658 152.4 4.79 333 -999
2008-09-26 06:27:40 51°13.835 2°55.65 152.4 4.79 333 -999
2008-09-26 06:27:50 51°13.846 2°55.643 152.4 4.79 333 -999
2008-09-26 06:28:00 51°13.859 2°55.636 163.4 4.59 343 -999
2008-09-26 06:28:10 51°13.872 2°55.631 163.4 4.59 343 -999
2008-09-26 06:28:20 51°13.884 2°55.628 163.4 4.59 343 -999
2008-09-26 06:28:30 51°13.896 2°55.626 163.4 4.59 343 -999
2008-09-26 06:28:40 51°13.908 2°55.627 163.4 4.59 343 -999
2008-09-26 06:28:50 51°13.92 2°55.629 163.4 4.59 343 -999
2008-09-26 06:29:00 51°13.929 2°55.632 197.4 3.6 13 -999
2008-09-26 06:29:10 51°13.939 2°55.637 197.4 3.6 13 -999
2008-09-26 06:29:20 51°13.946 2°55.64 197.4 3.6 13 -999
2008-09-26 06:29:30 51°13.951 2°55.643 197.4 3.6 13 -999
2008-09-26 06:29:40 51°13.953 2°55.644 197.4 3.6 13 -999
2008-09-26 06:29:50 51°13.953 2°55.64 197.4 3.6 13 -999
2008-09-26 06:30:00 51°13.951 2°55.632 235.1 2.29 253 -999
2008-09-26 06:30:10 51°13.95 2°55.618 235.1 2.29 253 -999
2008-09-26 06:30:20 51°13.952 2°55.601 235.1 2.29 253 -999
2008-09-26 06:30:30 51°13.957 2°55.583 235.1 2.29 253 -999
2008-09-26 06:30:40 51°13.966 2°55.565 235.1 2.29 253 -999
2008-09-26 06:30:50 51°13.978 2°55.548 235.1 2.29 253 -999
2008-09-26 06:31:00 51°13.993 2°55.53 321.8 7 325 -999
2008-09-26 06:31:10 51°14.011 2°55.512 321.8 7 325 -999
2008-09-26 06:31:20 51°14.03 2°55.494 321.8 7 325 -999
2008-09-26 06:31:30 51°14.051 2°55.476 321.8 7 325 -999
2008-09-26 06:31:40 51°14.072 2°55.456 321.8 7 325 -999
2008-09-26 06:31:50 51°14.094 2°55.437 321.8 7 325 -999
2008-09-26 06:32:00 51°14.117 2°55.417 331.8 9.3 331 -999
2008-09-26 06:32:10 51°14.139 2°55.396 331.8 9.3 331 -999
2008-09-26 06:32:20 51°14.162 2°55.375 331.8 9.3 331 -999
2008-09-26 06:32:30 51°14.183 2°55.352 331.8 9.3 331 -999
2008-09-26 06:32:40 51°14.205 2°55.328 331.8 9.3 331 -999
2008-09-26 06:32:50 51°14.225 2°55.302 331.8 9.3 331 -999
2008-09-26 06:33:00 51°14.244 2°55.274 320.8 9.4 317 -999
2008-09-26 06:33:10 51°14.263 2°55.244 320.8 9.4 317 -999
2008-09-26 06:33:20 51°14.28 2°55.214 320.8 9.4 317 -999
2008-09-26 06:33:30 51°14.297 2°55.182 320.8 9.4 317 -999
2008-09-26 06:33:40 51°14.314 2°55.149 320.8 9.4 317 -999
2008-09-26 06:33:50 51°14.33 2°55.115 320.8 9.4 317 -999
2008-09-26 06:34:00 51°14.345 2°55.08 306.6 9.59 303 -999
2008-09-26 06:34:10 51°14.358 2°55.044 306.6 9.59 303 -999
2008-09-26 06:34:20 51°14.371 2°55.007 306.6 9.59 303 -999
2008-09-26 06:34:30 51°14.382 2°54.968 306.6 9.59 303 -999
2008-09-26 06:34:40 51°14.387 2°54.928 306.6 9.59 303 -999
2008-09-26 06:34:50 51°14.389 2°54.886 306.6 9.59 303 -999
2008-09-26 06:35:00 51°14.39 2°54.843 275.1 9.69 271 -999
2008-09-26 06:35:10 51°14.39 2°54.8 275.1 9.69 271 -999
2008-09-26 06:35:20 51°14.388 2°54.756 275.1 9.69 271 -999
2008-09-26 06:35:30 51°14.385 2°54.712 275.1 9.69 271 -999
2008-09-26 06:35:40 51°14.38 2°54.668 275.1 9.69 271 -999
2008-09-26 06:35:50 51°14.376 2°54.626 275.1 9.69 271 -999
2008-09-26 06:36:00 51°14.368 2°54.576 260.6 10.8 255 -999
2008-09-26 06:36:10 51°14.36 2°54.53 260.6 10.8 255 -999
2008-09-26 06:36:20 51°14.349 2°54.484 260.6 10.8 255 -999
2008-09-26 06:36:30 51°14.337 2°54.438 260.6 10.8 255 -999
2008-09-26 06:36:40 51°14.326 2°54.391 260.6 10.8 255 -999
2008-09-26 06:36:50 51°14.314 2°54.342 260.6 10.8 255 -999
2008-09-26 06:37:00 51°14.302 2°54.293 250.5 12 249 -999
2008-09-26 06:37:10 51°14.29 2°54.244 250.5 12 249 -999
2008-09-26 06:37:20 51°14.278 2°54.194 250.5 12 249 -999
2008-09-26 06:37:30 51°14.266 2°54.144 250.5 12 249 -999
2008-09-26 06:37:40 51°14.252 2°54.095 250.5 12 249 -999
2008-09-26 06:37:50 51°14.238 2°54.046 250.5 12 249 -999
2008-09-26 06:38:00 51°14.224 2°53.998 245.9 12.09 244 -999
2008-09-26 06:38:10 51°14.209 2°53.95 245.9 12.09 244 -999
2008-09-26 06:38:20 51°14.195 2°53.901 245.9 12.09 244 -999
2008-09-26 06:38:30 51°14.18 2°53.853 245.9 12.09 244 -999
2008-09-26 06:38:40 51°14.164 2°53.806 245.9 12.09 244 -999
2008-09-26 06:38:50 51°14.149 2°53.757 245.9 12.09 244 -999
2008-09-26 06:39:00 51°14.134 2°53.71 243.4 12.19 242 -999
2008-09-26 06:39:10 51°14.118 2°53.662 243.4 12.19 242 -999
2008-09-26 06:39:20 51°14.103 2°53.614 243.4 12.19 242 -999
2008-09-26 06:39:30 51°14.088 2°53.565 243.4 12.19 242 -999
2008-09-26 06:39:40 51°14.074 2°53.517 243.4 12.19 242 -999
2008-09-26 06:39:50 51°14.058 2°53.469 243.4 12.19 242 -999
2008-09-26 06:40:00 51°14.044 2°53.42 246.1 12.19 244 -999
2008-09-26 06:40:10 51°14.03 2°53.371 246.1 12.19 244 -999
2008-09-26 06:40:20 51°14.015 2°53.322 246.1 12.19 244 -999
2008-09-26 06:40:30 51°14 2°53.273 246.1 12.19 244 -999
2008-09-26 06:40:40 51°13.985 2°53.225 246.1 12.19 244 -999
2008-09-26 06:40:50 51°13.969 2°53.177 246.1 12.19 244 -999
2008-09-26 06:41:00 51°13.952 2°53.13 242 12.3 241 -999
2008-09-26 06:41:10 51°13.935 2°53.082 242 12.3 241 -999
2008-09-26 06:41:20 51°13.917 2°53.036 242 12.3 241 -999
2008-09-26 06:41:30 51°13.899 2°52.989 242 12.3 241 -999
2008-09-26 06:41:40 51°13.881 2°52.943 242 12.3 241 -999
2008-09-26 06:41:50 51°13.863 2°52.897 242 12.3 241 -999
2008-09-26 06:42:00 51°13.847 2°52.854 238.4 11.19 239 -999
2008-09-26 06:42:10 51°13.832 2°52.815 238.4 11.19 239 -999
2008-09-26 06:42:20 51°13.818 2°52.781 238.4 11.19 239 -999
2008-09-26 06:42:30 51°13.806 2°52.747 238.4 11.19 239 -999
2008-09-26 06:42:40 51°13.796 2°52.715 238.4 11.19 239 -999
2008-09-26 06:42:50 51°13.787 2°52.685 238.4 11.19 239 -999
2008-09-26 06:43:00 51°13.778 2°52.656 246.6 7.2 243 -999
2008-09-26 06:43:10 51°13.77 2°52.628 246.6 7.2 243 -999
2008-09-26 06:43:20 51°13.761 2°52.602 246.6 7.2 243 -999
2008-09-26 06:43:30 51°13.753 2°52.576 246.6 7.2 243 -999
2008-09-26 06:43:40 51°13.744 2°52.55 246.6 7.2 243 -999
2008-09-26 06:43:50 51°13.734 2°52.526 246.6 7.2 243 -999
2008-09-26 06:44:00 51°13.725 2°52.501 239.4 6.4 239 -999
2008-09-26 06:44:10 51°13.716 2°52.477 239.4 6.4 239 -999
2008-09-26 06:44:20 51°13.707 2°52.45 239.4 6.4 239 -999
2008-09-26 06:44:30 51°13.698 2°52.421 239.4 6.4 239 -999
2008-09-26 06:44:40 51°13.688 2°52.39 239.4 6.4 239 -999
2008-09-26 06:44:50 51°13.679 2°52.356 239.4 6.4 239 -999
2008-09-26 06:45:00 51°13.668 2°52.323 246.6 8.69 244 -999
2008-09-26 06:45:10 51°13.657 2°52.289 246.6 8.69 244 -999
2008-09-26 06:45:20 51°13.644 2°52.254 246.6 8.69 244 -999
2008-09-26 06:45:30 51°13.632 2°52.219 246.6 8.69 244 -999
2008-09-26 06:45:40 51°13.619 2°52.184 246.6 8.69 244 -999
2008-09-26 06:45:50 51°13.606 2°52.148 246.6 8.69 244 -999
2008-09-26 06:46:00 51°13.593 2°52.113 240.6 9.3 238 -999
2008-09-26 06:46:10 51°13.579 2°52.078 240.6 9.3 238 -999
2008-09-26 06:46:20 51°13.565 2°52.043 240.6 9.3 238 -999
2008-09-26 06:46:30 51°13.551 2°52.008 240.6 9.3 238 -999
2008-09-26 06:46:40 51°13.537 2°51.973 240.6 9.3 238 -999
2008-09-26 06:46:50 51°13.523 2°51.938 240.6 9.3 238 -999
2008-09-26 06:47:00 51°13.509 2°51.903 238.5 9.4 238 -999
2008-09-26 06:47:10 51°13.495 2°51.868 238.5 9.4 238 -999
2008-09-26 06:47:20 51°13.48 2°51.834 238.5 9.4 238 -999
2008-09-26 06:47:30 51°13.466 2°51.804 238.5 9.4 238 -999
2008-09-26 06:47:40 51°13.454 2°51.776 238.5 9.4 238 -999
2008-09-26 06:47:50 51°13.442 2°51.75 238.5 9.4 238 -999
2008-09-26 06:48:00 51°13.432 2°51.726 235 6.59 235 -999
2008-09-26 06:48:10 51°13.422 2°51.702 235 6.59 235 -999
2008-09-26 06:48:20 51°13.414 2°51.68 235 6.59 235 -999
2008-09-26 06:48:30 51°13.407 2°51.658 235 6.59 235 -999
2008-09-26 06:48:40 51°13.4 2°51.636 235 6.59 235 -999
2008-09-26 06:48:50 51°13.395 2°51.615 235 6.59 235 -999
2008-09-26 06:49:00 51°13.391 2°51.594 253.8 4.9 252 -999
2008-09-26 06:49:10 51°13.387 2°51.574 253.8 4.9 252 -999
2008-09-26 06:49:20 51°13.385 2°51.554 253.8 4.9 252 -999
2008-09-26 06:49:30 51°13.384 2°51.536 253.8 4.9 252 -999
2008-09-26 06:49:40 51°13.384 2°51.518 253.8 4.9 252 -999
2008-09-26 06:49:50 51°13.384 2°51.502 253.8 4.9 252 -999
2008-09-26 06:50:00 51°13.386 2°51.487 292.1 3.39 278 -999
2008-09-26 06:50:10 51°13.388 2°51.472 292.1 3.39 278 -999
2008-09-26 06:50:20 51°13.39 2°51.46 292.1 3.39 278 -999
2008-09-26 06:50:30 51°13.391 2°51.449 292.1 3.39 278 -999
2008-09-26 06:50:40 51°13.392 2°51.44 292.1 3.39 278 -999
2008-09-26 06:50:50 51°13.393 2°51.432 292.1 3.39 278 -999
2008-09-26 06:51:00 51°13.394 2°51.425 323.3 1.6 274 -999
2008-09-26 06:51:10 51°13.393 2°51.419 323.3 1.6 274 -999
2008-09-26 06:51:20 51°13.393 2°51.413 323.3 1.6 274 -999
2008-09-26 06:51:30 51°13.392 2°51.407 323.3 1.6 274 -999
2008-09-26 06:51:40 51°13.39 2°51.402 323.3 1.6 274 -999
2008-09-26 06:51:50 51°13.389 2°51.396 323.3 1.6 274 -999
2008-09-26 06:52:00 51°13.388 2°51.391 339.5 1.3 252 -999
2008-09-26 06:52:10 51°13.387 2°51.386 339.5 1.3 252 -999
2008-09-26 06:52:20 51°13.386 2°51.381 339.5 1.3 252 -999
2008-09-26 06:52:30 51°13.384 2°51.376 339.5 1.3 252 -999
2008-09-26 06:52:40 51°13.383 2°51.371 339.5 1.3 252 -999
2008-09-26 06:52:50 51°13.381 2°51.365 339.5 1.3 252 -999
2008-09-26 06:53:00 51°13.38 2°51.36 342.6 1.3 244 -999
2008-09-26 06:53:10 51°13.378 2°51.355 342.6 1.3 244 -999
2008-09-26 06:53:20 51°13.377 2°51.351 342.6 1.3 244 -999
2008-09-26 06:53:30 51°13.375 2°51.346 342.6 1.3 244 -999
2008-09-26 06:53:40 51°13.374 2°51.341 342.6 1.3 244 -999
2008-09-26 06:53:50 51°13.372 2°51.336 342.6 1.3 244 -999
2008-09-26 06:54:00 51°13.37 2°51.33 343.1 1.39 243 -999
2008-09-26 06:54:10 51°13.368 2°51.325 343.1 1.39 243 -999
2008-09-26 06:54:20 51°13.366 2°51.32 343.1 1.39 243 -999
2008-09-26 06:54:30 51°13.365 2°51.315 343.1 1.39 243 -999
2008-09-26 06:54:40 51°13.363 2°51.309 343.1 1.39 243 -999
2008-09-26 06:54:50 51°13.361 2°51.304 343.1 1.39 243 -999
2008-09-26 06:55:00 51°13.358 2°51.299 341.8 1.39 236 -999
2008-09-26 06:55:10 51°13.356 2°51.293 341.8 1.39 236 -999
2008-09-26 06:55:20 51°13.354 2°51.288 341.8 1.39 236 -999
2008-09-26 06:55:30 51°13.351 2°51.283 341.8 1.39 236 -999
2008-09-26 06:55:40 51°13.349 2°51.278 341.8 1.39 236 -999
2008-09-26 06:55:50 51°13.347 2°51.273 341.8 1.39 236 -999
2008-09-26 06:56:00 51°13.344 2°51.268 336.8 1.39 233 -999
2008-09-26 06:56:10 51°13.342 2°51.263 336.8 1.39 233 -999
2008-09-26 06:56:20 51°13.339 2°51.258 336.8 1.39 233 -999
2008-09-26 06:56:30 51°13.337 2°51.253 336.8 1.39 233 -999
2008-09-26 06:56:40 51°13.334 2°51.248 336.8 1.39 233 -999
2008-09-26 06:56:50 51°13.332 2°51.243 336.8 1.39 233 -999
2008-09-26 06:57:00 51°13.329 2°51.238 327.8 1.39 229 -999
2008-09-26 06:57:10 51°13.326 2°51.234 327.8 1.39 229 -999
2008-09-26 06:57:20 51°13.324 2°51.228 327.8 1.39 229 -999
2008-09-26 06:57:30 51°13.323 2°51.221 327.8 1.39 229 -999
2008-09-26 06:57:40 51°13.323 2°51.211 327.8 1.39 229 -999
2008-09-26 06:57:50 51°13.325 2°51.198 327.8 1.39 229 -999
2008-09-26 06:58:00 51°13.325 2°51.182 293.3 3.79 270 -999
2008-09-26 06:58:10 51°13.324 2°51.163 293.3 3.79 270 -999
2008-09-26 06:58:20 51°13.32 2°51.144 293.3 3.79 270 -999
2008-09-26 06:58:30 51°13.314 2°51.125 293.3 3.79 270 -999
2008-09-26 06:58:40 51°13.306 2°51.103 293.3 3.79 270 -999
2008-09-26 06:58:50 51°13.297 2°51.078 293.3 3.79 270 -999
2008-09-26 06:59:00 51°13.286 2°51.045 241.4 8.8 243 -999
2008-09-26 06:59:10 51°13.274 2°51.006 241.4 8.8 243 -999
2008-09-26 06:59:20 51°13.26 2°50.963 241.4 8.8 243 -999
2008-09-26 06:59:30 51°13.246 2°50.918 241.4 8.8 243 -999
2008-09-26 06:59:40 51°13.231 2°50.872 241.4 8.8 243 -999
2008-09-26 06:59:50 51°13.216 2°50.825 241.4 8.8 243 -999
2008-09-26 07:00:00 51°13.2 2°50.778 241 12.09 242 -999
2008-09-26 07:00:10 51°13.183 2°50.731 241 12.09 242 -999
2008-09-26 07:00:20 51°13.166 2°50.684 241 12.09 242 -999
2008-09-26 07:00:30 51°13.148 2°50.637 241 12.09 242 -999
2008-09-26 07:00:40 51°13.131 2°50.59 241 12.09 242 -999
2008-09-26 07:00:50 51°13.114 2°50.542 241 12.09 242 -999
2008-09-26 07:01:00 51°13.097 2°50.494 241 12.4 240 -999
2008-09-26 07:01:10 51°13.08 2°50.447 241 12.4 240 -999
2008-09-26 07:01:20 51°13.062 2°50.4 241 12.4 240 -999
2008-09-26 07:01:30 51°13.045 2°50.353 241 12.4 240 -999
2008-09-26 07:01:40 51°13.028 2°50.305 241 12.4 240 -999
2008-09-26 07:01:50 51°13.011 2°50.257 241 12.4 240 -999
2008-09-26 07:02:00 51°12.994 2°50.209 240.9 12.4 240 -999
2008-09-26 07:02:10 51°12.978 2°50.161 240.9 12.4 240 -999
2008-09-26 07:02:20 51°12.961 2°50.113 240.9 12.4 240 -999
2008-09-26 07:02:30 51°12.945 2°50.065 240.9 12.4 240 -999
2008-09-26 07:02:40 51°12.929 2°50.017 240.9 12.4 240 -999
2008-09-26 07:02:50 51°12.913 2°49.968 240.9 12.4 240 -999
2008-09-26 07:03:00 51°12.897 2°49.92 242 12.4 241 -999
2008-09-26 07:03:10 51°12.881 2°49.872 242 12.4 241 -999
2008-09-26 07:03:20 51°12.865 2°49.823 242 12.4 241 -999
2008-09-26 07:03:30 51°12.85 2°49.774 242 12.4 241 -999
2008-09-26 07:03:40 51°12.835 2°49.725 242 12.4 241 -999
2008-09-26 07:03:50 51°12.82 2°49.675 242 12.4 241 -999
2008-09-26 07:04:00 51°12.805 2°49.626 244.1 12.5 243 -999
2008-09-26 07:04:10 51°12.788 2°49.577 244.1 12.5 243 -999
2008-09-26 07:04:20 51°12.771 2°49.529 244.1 12.5 243 -999
2008-09-26 07:04:30 51°12.755 2°49.481 244.1 12.5 243 -999
2008-09-26 07:04:40 51°12.738 2°49.433 244.1 12.5 243 -999
2008-09-26 07:04:50 51°12.721 2°49.386 244.1 12.5 243 -999
2008-09-26 07:05:00 51°12.705 2°49.338 241 12.4 242 -999
2008-09-26 07:05:10 51°12.688 2°49.29 241 12.4 242 -999
2008-09-26 07:05:20 51°12.671 2°49.242 241 12.4 242 -999
2008-09-26 07:05:30 51°12.654 2°49.193 241 12.4 242 -999
2008-09-26 07:05:40 51°12.639 2°49.145 241 12.4 242 -999
2008-09-26 07:05:50 51°12.624 2°49.095 241 12.4 242 -999
2008-09-26 07:06:00 51°12.608 2°49.046 243.8 12.5 245 -999
2008-09-26 07:06:10 51°12.594 2°48.997 243.8 12.5 245 -999
2008-09-26 07:06:20 51°12.579 2°48.947 243.8 12.5 245 -999
2008-09-26 07:06:30 51°12.564 2°48.898 243.8 12.5 245 -999
2008-09-26 07:06:40 51°12.549 2°48.849 243.8 12.5 245 -999
2008-09-26 07:06:50 51°12.533 2°48.8 243.8 12.5 245 -999
2008-09-26 07:07:00 51°12.518 2°48.751 244 12.4 243 -999
2008-09-26 07:07:10 51°12.503 2°48.702 244 12.4 243 -999
2008-09-26 07:07:20 51°12.487 2°48.653 244 12.4 243 -999
2008-09-26 07:07:30 51°12.471 2°48.604 244 12.4 243 -999
2008-09-26 07:07:40 51°12.456 2°48.555 244 12.4 243 -999
2008-09-26 07:07:50 51°12.44 2°48.507 244 12.4 243 -999
2008-09-26 07:08:00 51°12.424 2°48.458 242.4 12.5 244 -999
2008-09-26 07:08:10 51°12.407 2°48.41 242.4 12.5 244 -999
2008-09-26 07:08:20 51°12.391 2°48.361 242.4 12.5 244 -999
2008-09-26 07:08:30 51°12.376 2°48.312 242.4 12.5 244 -999
2008-09-26 07:08:40 51°12.361 2°48.262 242.4 12.5 244 -999
2008-09-26 07:08:50 51°12.345 2°48.213 242.4 12.5 244 -999
2008-09-26 07:09:00 51°12.33 2°48.164 243 12.4 243 -999
2008-09-26 07:09:10 51°12.316 2°48.12 243 12.4 243 -999
2008-09-26 07:09:20 51°12.299 2°48.067 243 12.4 243 -999
2008-09-26 07:09:30 51°12.283 2°48.018 243 12.4 243 -999
2008-09-26 07:09:40 51°12.267 2°47.969 243 12.4 243 -999
2008-09-26 07:09:50 51°12.252 2°47.919 243 12.4 243 -999
2008-09-26 07:10:00 51°12.238 2°47.87 243.3 12.4 245 -999
2008-09-26 07:10:10 51°12.224 2°47.819 243.3 12.4 245 -999
2008-09-26 07:10:20 51°12.209 2°47.769 243.3 12.4 245 -999
2008-09-26 07:10:30 51°12.195 2°47.719 243.3 12.4 245 -999
2008-09-26 07:10:40 51°12.181 2°47.669 243.3 12.4 245 -999
2008-09-26 07:10:50 51°12.166 2°47.619 243.3 12.4 245 -999
2008-09-26 07:11:00 51°12.151 2°47.57 244.5 12.5 245 -999
2008-09-26 07:11:10 51°12.137 2°47.52 244.5 12.5 245 -999
2008-09-26 07:11:20 51°12.124 2°47.469 244.5 12.5 245 -999
2008-09-26 07:11:30 51°12.112 2°47.418 244.5 12.5 245 -999
2008-09-26 07:11:40 51°12.101 2°47.365 244.5 12.5 245 -999
2008-09-26 07:11:50 51°12.092 2°47.313 244.5 12.5 245 -999
2008-09-26 07:12:00 51°12.084 2°47.26 255.6 12.3 258 -999
2008-09-26 07:12:10 51°12.076 2°47.207 255.6 12.3 258 -999
2008-09-26 07:12:20 51°12.068 2°47.154 255.6 12.3 258 -999
2008-09-26 07:12:30 51°12.061 2°47.101 255.6 12.3 258 -999
2008-09-26 07:12:40 51°12.054 2°47.048 255.6 12.3 258 -999
2008-09-26 07:12:50 51°12.047 2°46.995 255.6 12.3 258 -999
2008-09-26 07:13:00 51°12.039 2°46.943 259.6 12.19 257 -999
2008-09-26 07:13:10 51°12.032 2°46.89 259.6 12.19 257 -999
2008-09-26 07:13:20 51°12.025 2°46.837 259.6 12.19 257 -999
2008-09-26 07:13:30 51°12.018 2°46.784 259.6 12.19 257 -999
2008-09-26 07:13:40 51°12.011 2°46.732 259.6 12.19 257 -999
2008-09-26 07:13:50 51°12.003 2°46.679 259.6 12.19 257 -999
2008-09-26 07:14:00 51°11.997 2°46.626 258.6 12.19 259 -999
2008-09-26 07:14:10 51°11.99 2°46.574 258.6 12.19 259 -999
2008-09-26 07:14:20 51°11.982 2°46.522 258.6 12.19 259 -999
2008-09-26 07:14:30 51°11.974 2°46.47 258.6 12.19 259 -999
2008-09-26 07:14:40 51°11.966 2°46.418 258.6 12.19 259 -999
2008-09-26 07:14:50 51°11.957 2°46.367 258.6 12.19 259 -999
2008-09-26 07:15:00 51°11.948 2°46.315 255.6 12 256 -999
2008-09-26 07:15:10 51°11.939 2°46.264 255.6 12 256 -999
2008-09-26 07:15:20 51°11.93 2°46.212 255.6 12 256 -999
2008-09-26 07:15:30 51°11.922 2°46.161 255.6 12 256 -999
2008-09-26 07:15:40 51°11.913 2°46.11 255.6 12 256 -999
2008-09-26 07:15:50 51°11.904 2°46.058 255.6 12 256 -999
2008-09-26 07:16:00 51°11.895 2°46.007 255 12 257 -999
2008-09-26 07:16:10 51°11.887 2°45.956 255 12 257 -999
2008-09-26 07:16:20 51°11.878 2°45.904 255 12 257 -999
2008-09-26 07:16:30 51°11.87 2°45.853 255 12 257 -999
2008-09-26 07:16:40 51°11.861 2°45.802 255 12 257 -999
2008-09-26 07:16:50 51°11.853 2°45.75 255 12 257 -999
2008-09-26 07:17:00 51°11.845 2°45.699 255.5 11.9 256 -999
2008-09-26 07:17:10 51°11.836 2°45.648 255.5 11.9 256 -999
2008-09-26 07:17:20 51°11.828 2°45.597 255.5 11.9 256 -999
2008-09-26 07:17:30 51°11.819 2°45.545 255.5 11.9 256 -999
2008-09-26 07:17:40 51°11.811 2°45.494 255.5 11.9 256 -999
2008-09-26 07:17:50 51°11.803 2°45.442 255.5 11.9 256 -999
2008-09-26 07:18:00 51°11.795 2°45.391 255 11.9 255 -999
2008-09-26 07:18:10 51°11.786 2°45.34 255 11.9 255 -999
2008-09-26 07:18:20 51°11.777 2°45.29 255 11.9 255 -999
2008-09-26 07:18:30 51°11.768 2°45.239 255 11.9 255 -999
2008-09-26 07:18:40 51°11.759 2°45.188 255 11.9 255 -999
2008-09-26 07:18:50 51°11.751 2°45.137 255 11.9 255 -999
2008-09-26 07:19:00 51°11.742 2°45.086 255.9 11.9 257 -999
2008-09-26 07:19:10 51°11.734 2°45.036 255.9 11.9 257 -999
2008-09-26 07:19:20 51°11.725 2°44.985 255.9 11.9 257 -999
2008-09-26 07:19:30 51°11.717 2°44.934 255.9 11.9 257 -999
2008-09-26 07:19:40 51°11.708 2°44.883 255.9 11.9 257 -999
2008-09-26 07:19:50 51°11.7 2°44.832 255.9 11.9 257 -999
2008-09-26 07:20:00 51°11.693 2°44.78 256.8 11.9 258 -999
2008-09-26 07:20:10 51°11.685 2°44.729 256.8 11.9 258 -999
2008-09-26 07:20:20 51°11.677 2°44.678 256.8 11.9 258 -999
2008-09-26 07:20:30 51°11.669 2°44.628 256.8 11.9 258 -999
2008-09-26 07:20:40 51°11.661 2°44.577 256.8 11.9 258 -999
2008-09-26 07:20:50 51°11.652 2°44.526 256.8 11.9 258 -999
2008-09-26 07:21:00 51°11.643 2°44.476 254.5 11.9 254 -999
2008-09-26 07:21:10 51°11.634 2°44.426 254.5 11.9 254 -999
2008-09-26 07:21:20 51°11.626 2°44.375 254.5 11.9 254 -999
2008-09-26 07:21:30 51°11.618 2°44.324 254.5 11.9 254 -999
2008-09-26 07:21:40 51°11.609 2°44.274 254.5 11.9 254 -999
2008-09-26 07:21:50 51°11.601 2°44.223 254.5 11.9 254 -999
2008-09-26 07:22:00 51°11.592 2°44.173 255.4 11.8 255 -999
2008-09-26 07:22:10 51°11.584 2°44.122 255.4 11.8 255 -999
2008-09-26 07:22:20 51°11.576 2°44.071 255.4 11.8 255 -999
2008-09-26 07:22:30 51°11.568 2°44.021 255.4 11.8 255 -999
2008-09-26 07:22:40 51°11.56 2°43.97 255.4 11.8 255 -999
2008-09-26 07:22:50 51°11.552 2°43.92 255.4 11.8 255 -999
2008-09-26 07:23:00 51°11.543 2°43.869 255.4 11.69 256 -999
2008-09-26 07:23:10 51°11.536 2°43.819 255.4 11.69 256 -999
2008-09-26 07:23:20 51°11.529 2°43.768 255.4 11.69 256 -999
2008-09-26 07:23:30 51°11.523 2°43.717 255.4 11.69 256 -999
2008-09-26 07:23:40 51°11.518 2°43.665 255.4 11.69 256 -999
2008-09-26 07:23:50 51°11.513 2°43.614 255.4 11.69 256 -999
2008-09-26 07:24:00 51°11.508 2°43.562 262 11.8 260 -999
2008-09-26 07:24:10 51°11.504 2°43.511 262 11.8 260 -999
2008-09-26 07:24:20 51°11.499 2°43.459 262 11.8 260 -999
2008-09-26 07:24:30 51°11.494 2°43.408 262 11.8 260 -999
2008-09-26 07:24:40 51°11.489 2°43.356 262 11.8 260 -999
2008-09-26 07:24:50 51°11.484 2°43.305 262 11.8 260 -999
2008-09-26 07:25:00 51°11.479 2°43.254 261.6 11.8 260 -999
2008-09-26 07:25:10 51°11.473 2°43.203 261.6 11.8 260 -999
2008-09-26 07:25:20 51°11.468 2°43.151 261.6 11.8 260 -999
2008-09-26 07:25:30 51°11.463 2°43.1 261.6 11.8 260 -999
2008-09-26 07:25:40 51°11.457 2°43.05 261.6 11.8 260 -999
2008-09-26 07:25:50 51°11.452 2°42.999 261.6 11.8 260 -999
2008-09-26 07:26:00 51°11.446 2°42.948 260 11.69 258 -999
2008-09-26 07:26:10 51°11.44 2°42.897 260 11.69 258 -999
2008-09-26 07:26:20 51°11.434 2°42.846 260 11.69 258 -999
2008-09-26 07:26:30 51°11.428 2°42.795 260 11.69 258 -999
2008-09-26 07:26:40 51°11.421 2°42.744 260 11.69 258 -999
2008-09-26 07:26:50 51°11.415 2°42.693 260 11.69 258 -999
2008-09-26 07:27:00 51°11.407 2°42.645 258.6 11.3 255 -999
2008-09-26 07:27:10 51°11.396 2°42.6 258.6 11.3 255 -999
2008-09-26 07:27:20 51°11.382 2°42.561 258.6 11.3 255 -999
2008-09-26 07:27:30 51°11.365 2°42.524 258.6 11.3 255 -999
2008-09-26 07:27:40 51°11.349 2°42.492 258.6 11.3 255 -999
2008-09-26 07:27:50 51°11.334 2°42.462 258.6 11.3 255 -999
2008-09-26 07:28:00 51°11.318 2°42.436 227.3 8 225 -999
2008-09-26 07:28:10 51°11.303 2°42.414 227.3 8 225 -999
2008-09-26 07:28:20 51°11.289 2°42.395 227.3 8 225 -999
2008-09-26 07:28:30 51°11.277 2°42.378 227.3 8 225 -999
2008-09-26 07:28:40 51°11.267 2°42.361 227.3 8 225 -999
2008-09-26 07:28:50 51°11.258 2°42.345 227.3 8 225 -999
2008-09-26 07:29:00 51°11.25 2°42.329 231 4.59 231 -999
2008-09-26 07:29:10 51°11.242 2°42.314 231 4.59 231 -999
2008-09-26 07:29:20 51°11.235 2°42.3 231 4.59 231 -999
2008-09-26 07:29:30 51°11.228 2°42.287 231 4.59 231 -999
2008-09-26 07:29:40 51°11.22 2°42.276 231 4.59 231 -999
2008-09-26 07:29:50 51°11.213 2°42.265 231 4.59 231 -999
2008-09-26 07:30:00 51°11.205 2°42.256 217.1 3.29 218 -999
2008-09-26 07:30:10 51°11.198 2°42.247 217.1 3.29 218 -999
2008-09-26 07:30:20 51°11.191 2°42.239 217.1 3.29 218 -999
2008-09-26 07:30:30 51°11.184 2°42.231 217.1 3.29 218 -999
2008-09-26 07:30:40 51°11.177 2°42.223 217.1 3.29 218 -999
2008-09-26 07:30:50 51°11.17 2°42.216 217.1 3.29 218 -999
2008-09-26 07:31:00 51°11.164 2°42.209 208.5 2.89 213 -999
2008-09-26 07:31:10 51°11.157 2°42.202 208.5 2.89 213 -999
2008-09-26 07:31:20 51°11.151 2°42.196 208.5 2.89 213 -999
2008-09-26 07:31:30 51°11.144 2°42.19 208.5 2.89 213 -999
2008-09-26 07:31:40 51°11.138 2°42.184 208.5 2.89 213 -999
2008-09-26 07:31:50 51°11.131 2°42.177 208.5 2.89 213 -999
2008-09-26 07:32:00 51°11.124 2°42.171 201.6 2.89 210 -999
2008-09-26 07:32:10 51°11.117 2°42.165 201.6 2.89 210 -999
2008-09-26 07:32:20 51°11.11 2°42.158 201.6 2.89 210 -999
2008-09-26 07:32:30 51°11.103 2°42.15 201.6 2.89 210 -999
2008-09-26 07:32:40 51°11.097 2°42.142 201.6 2.89 210 -999
2008-09-26 07:32:50 51°11.09 2°42.134 201.6 2.89 210 -999
2008-09-26 07:33:00 51°11.084 2°42.127 214 2.79 218 -999
2008-09-26 07:33:10 51°11.079 2°42.12 214 2.79 218 -999
2008-09-26 07:33:20 51°11.073 2°42.114 214 2.79 218 -999
2008-09-26 07:33:30 51°11.068 2°42.108 214 2.79 218 -999
2008-09-26 07:33:40 51°11.064 2°42.103 214 2.79 218 -999
2008-09-26 07:33:50 51°11.06 2°42.099 214 2.79 218 -999
2008-09-26 07:34:00 51°11.056 2°42.095 198 1.69 213 -999
2008-09-26 07:34:10 51°11.052 2°42.091 198 1.69 213 -999
2008-09-26 07:34:20 51°11.048 2°42.088 198 1.69 213 -999
2008-09-26 07:34:30 51°11.045 2°42.084 198 1.69 213 -999
2008-09-26 07:34:40 51°11.041 2°42.081 198 1.69 213 -999
2008-09-26 07:34:50 51°11.038 2°42.078 198 1.69 213 -999
2008-09-26 07:35:00 51°11.035 2°42.074 186.1 1.39 213 -999
2008-09-26 07:35:10 51°11.032 2°42.071 186.1 1.39 213 -999
2008-09-26 07:35:20 51°11.029 2°42.068 186.1 1.39 213 -999
2008-09-26 07:35:30 51°11.026 2°42.065 186.1 1.39 213 -999
2008-09-26 07:35:40 51°11.024 2°42.062 186.1 1.39 213 -999
2008-09-26 07:35:50 51°11.021 2°42.06 186.1 1.39 213 -999
2008-09-26 07:36:00 51°11.018 2°42.057 181.4 1.1 212 -999
2008-09-26 07:36:10 51°11.016 2°42.054 181.4 1.1 212 -999
2008-09-26 07:36:20 51°11.014 2°42.052 181.4 1.1 212 -999
2008-09-26 07:36:30 51°11.011 2°42.049 181.4 1.1 212 -999
2008-09-26 07:36:40 51°11.009 2°42.046 181.4 1.1 212 -999
2008-09-26 07:36:50 51°11.007 2°42.044 181.4 1.1 212 -999
2008-09-26 07:37:00 51°11.005 2°42.041 177.6 1 220 -999
2008-09-26 07:37:10 51°11.002 2°42.039 177.6 1 220 -999
2008-09-26 07:37:20 51°11 2°42.036 177.6 1 220 -999
2008-09-26 07:37:30 51°10.998 2°42.033 177.6 1 220 -999
2008-09-26 07:37:40 51°10.996 2°42.03 177.6 1 220 -999
2008-09-26 07:37:50 51°10.993 2°42.028 177.6 1 220 -999
2008-09-26 07:38:00 51°10.991 2°42.025 177.1 1 220 -999
2008-09-26 07:38:10 51°10.989 2°42.023 177.1 1 220 -999
2008-09-26 07:38:20 51°10.987 2°42.02 177.1 1 220 -999
2008-09-26 07:38:30 51°10.985 2°42.018 177.1 1 220 -999
2008-09-26 07:38:40 51°10.983 2°42.015 177.1 1 220 -999
2008-09-26 07:38:50 51°10.981 2°42.012 177.1 1 220 -999
2008-09-26 07:39:00 51°10.976 2°42.01 174.1 1.8 200 -999
2008-09-26 07:39:10 51°10.971 2°42.006 174.1 1.8 200 -999
2008-09-26 07:39:20 51°10.963 2°42.002 174.1 1.8 200 -999
2008-09-26 07:39:30 51°10.956 2°41.994 174.1 1.8 200 -999
2008-09-26 07:39:40 51°10.948 2°41.982 174.1 1.8 200 -999
2008-09-26 07:39:50 51°10.941 2°41.968 174.1 1.8 200 -999
2008-09-26 07:40:00 51°10.936 2°41.951 239.5 4.5 247 -999
2008-09-26 07:40:10 51°10.93 2°41.929 239.5 4.5 247 -999
2008-09-26 07:40:20 51°10.924 2°41.903 239.5 4.5 247 -999
2008-09-26 07:40:30 51°10.916 2°41.872 239.5 4.5 247 -999
2008-09-26 07:40:40 51°10.907 2°41.838 239.5 4.5 247 -999
2008-09-26 07:40:50 51°10.896 2°41.802 239.5 4.5 247 -999
2008-09-26 07:41:00 51°10.885 2°41.764 244 9.69 245 -999
2008-09-26 07:41:10 51°10.872 2°41.723 244 9.69 245 -999
2008-09-26 07:41:20 51°10.86 2°41.679 244 9.69 245 -999
2008-09-26 07:41:30 51°10.847 2°41.634 244 9.69 245 -999
2008-09-26 07:41:40 51°10.836 2°41.587 244 9.69 245 -999
2008-09-26 07:41:50 51°10.827 2°41.538 244 9.69 245 -999
2008-09-26 07:42:00 51°10.819 2°41.489 253.8 11.59 257 -999
2008-09-26 07:42:10 51°10.813 2°41.438 253.8 11.59 257 -999
2008-09-26 07:42:20 51°10.808 2°41.388 253.8 11.59 257 -999
2008-09-26 07:42:30 51°10.803 2°41.337 253.8 11.59 257 -999
2008-09-26 07:42:40 51°10.797 2°41.287 253.8 11.59 257 -999
2008-09-26 07:42:50 51°10.792 2°41.236 253.8 11.59 257 -999
2008-09-26 07:43:00 51°10.786 2°41.186 259.8 11.69 260 -999
2008-09-26 07:43:10 51°10.781 2°41.135 259.8 11.69 260 -999
2008-09-26 07:43:20 51°10.775 2°41.084 259.8 11.69 260 -999
2008-09-26 07:43:30 51°10.77 2°41.034 259.8 11.69 260 -999
2008-09-26 07:43:40 51°10.766 2°40.983 259.8 11.69 260 -999
2008-09-26 07:43:50 51°10.762 2°40.932 259.8 11.69 260 -999
2008-09-26 07:44:00 51°10.757 2°40.881 262.3 11.59 261 -999
2008-09-26 07:44:10 51°10.752 2°40.83 262.3 11.59 261 -999
2008-09-26 07:44:20 51°10.747 2°40.78 262.3 11.59 261 -999
2008-09-26 07:44:30 51°10.741 2°40.729 262.3 11.59 261 -999
2008-09-26 07:44:40 51°10.735 2°40.679 262.3 11.59 261 -999
2008-09-26 07:44:50 51°10.729 2°40.628 262.3 11.59 261 -999
2008-09-26 07:45:00 51°10.723 2°40.578 258.8 11.69 259 -999
2008-09-26 07:45:10 51°10.718 2°40.528 258.8 11.69 259 -999
2008-09-26 07:45:20 51°10.711 2°40.478 258.8 11.69 259 -999
2008-09-26 07:45:30 51°10.706 2°40.428 258.8 11.69 259 -999
2008-09-26 07:45:40 51°10.701 2°40.377 258.8 11.69 259 -999
2008-09-26 07:45:50 51°10.695 2°40.326 258.8 11.69 259 -999
2008-09-26 07:46:00 51°10.69 2°40.275 260.3 11.59 261 -999
2008-09-26 07:46:10 51°10.685 2°40.225 260.3 11.59 261 -999
2008-09-26 07:46:20 51°10.68 2°40.174 260.3 11.59 261 -999
2008-09-26 07:46:30 51°10.674 2°40.124 260.3 11.59 261 -999
2008-09-26 07:46:40 51°10.669 2°40.073 260.3 11.59 261 -999
2008-09-26 07:46:50 51°10.664 2°40.022 260.3 11.59 261 -999
2008-09-26 07:47:00 51°10.659 2°39.972 260.3 11.5 262 -999
2008-09-26 07:47:10 51°10.653 2°39.922 260.3 11.5 262 -999
2008-09-26 07:47:20 51°10.648 2°39.872 260.3 11.5 262 -999
2008-09-26 07:47:30 51°10.642 2°39.823 260.3 11.5 262 -999
2008-09-26 07:47:40 51°10.637 2°39.772 260.3 11.5 262 -999
2008-09-26 07:47:50 51°10.631 2°39.722 260.3 11.5 262 -999
2008-09-26 07:48:00 51°10.626 2°39.672 260.6 11.59 260 -999
2008-09-26 07:48:10 51°10.62 2°39.622 260.6 11.59 260 -999
2008-09-26 07:48:20 51°10.615 2°39.576 260.6 11.59 260 -999
2008-09-26 07:48:30 51°10.608 2°39.521 260.6 11.59 260 -999
2008-09-26 07:48:40 51°10.602 2°39.471 260.6 11.59 260 -999
2008-09-26 07:48:50 51°10.596 2°39.421 260.6 11.59 260 -999
2008-09-26 07:49:00 51°10.59 2°39.37 257.8 11.69 260 -999
2008-09-26 07:49:10 51°10.584 2°39.32 257.8 11.69 260 -999
2008-09-26 07:49:20 51°10.578 2°39.269 257.8 11.69 260 -999
2008-09-26 07:49:30 51°10.574 2°39.223 257.8 11.69 260 -999
2008-09-26 07:49:40 51°10.567 2°39.167 257.8 11.69 260 -999
2008-09-26 07:49:50 51°10.562 2°39.116 257.8 11.69 260 -999
2008-09-26 07:50:00 51°10.558 2°39.07 259.5 11.69 259 -999
2008-09-26 07:50:10 51°10.551 2°39.014 259.5 11.69 259 -999
2008-09-26 07:50:20 51°10.545 2°38.964 259.5 11.69 259 -999
2008-09-26 07:50:30 51°10.54 2°38.918 259.5 11.69 259 -999
2008-09-26 07:50:40 51°10.534 2°38.862 259.5 11.69 259 -999
2008-09-26 07:50:50 51°10.528 2°38.81 259.5 11.69 259 -999
2008-09-26 07:51:00 51°10.522 2°38.764 258.3 11.8 261 -999
2008-09-26 07:51:10 51°10.516 2°38.713 258.3 11.8 261 -999
2008-09-26 07:51:20 51°10.509 2°38.658 258.3 11.8 261 -999
2008-09-26 07:51:30 51°10.502 2°38.607 258.3 11.8 261 -999
2008-09-26 07:51:40 51°10.496 2°38.555 258.3 11.8 261 -999
2008-09-26 07:51:50 51°10.49 2°38.509 258.3 11.8 261 -999
2008-09-26 07:52:00 51°10.484 2°38.453 259 11.8 261 -999
2008-09-26 07:52:10 51°10.479 2°38.401 259 11.8 261 -999
2008-09-26 07:52:20 51°10.473 2°38.35 259 11.8 261 -999
2008-09-26 07:52:30 51°10.468 2°38.298 259 11.8 261 -999
2008-09-26 07:52:40 51°10.463 2°38.251 259 11.8 261 -999
2008-09-26 07:52:50 51°10.458 2°38.194 259 11.8 261 -999
2008-09-26 07:53:00 51°10.454 2°38.142 261.6 11.9 261 -999
2008-09-26 07:53:10 51°10.449 2°38.09 261.6 11.9 261 -999
2008-09-26 07:53:20 51°10.444 2°38.039 261.6 11.9 261 -999
2008-09-26 07:53:30 51°10.438 2°37.993 261.6 11.9 261 -999
2008-09-26 07:53:40 51°10.432 2°37.936 261.6 11.9 261 -999
2008-09-26 07:53:50 51°10.427 2°37.884 261.6 11.9 261 -999
2008-09-26 07:54:00 51°10.422 2°37.838 260.1 11.9 260 -999
2008-09-26 07:54:10 51°10.417 2°37.786 260.1 11.9 260 -999
2008-09-26 07:54:20 51°10.411 2°37.729 260.1 11.9 260 -999
2008-09-26 07:54:30 51°10.406 2°37.677 260.1 11.9 260 -999
2008-09-26 07:54:40 51°10.401 2°37.626 260.1 11.9 260 -999
2008-09-26 07:54:50 51°10.396 2°37.579 260.1 11.9 260 -999
2008-09-26 07:55:00 51°10.391 2°37.522 261.1 11.9 261 -999
2008-09-26 07:55:10 51°10.386 2°37.47 261.1 11.9 261 -999
2008-09-26 07:55:20 51°10.382 2°37.423 261.1 11.9 261 -999
2008-09-26 07:55:30 51°10.377 2°37.371 261.1 11.9 261 -999
2008-09-26 07:55:40 51°10.372 2°37.313 261.1 11.9 261 -999
2008-09-26 07:55:50 51°10.367 2°37.261 261.1 11.9 261 -999
2008-09-26 07:56:00 51°10.361 2°37.216 259.8 11.8 257 -999
2008-09-26 07:56:10 51°10.355 2°37.165 259.8 11.8 257 -999
2008-09-26 07:56:20 51°10.35 2°37.114 259.8 11.8 257 -999
2008-09-26 07:56:30 51°10.344 2°37.059 259.8 11.8 257 -999
2008-09-26 07:56:40 51°10.342 2°37.008 259.8 11.8 257 -999
2008-09-26 07:56:50 51°10.341 2°36.963 259.8 11.8 257 -999
2008-09-26 07:57:00 51°10.34 2°36.907 269.5 11.4 269 -999
2008-09-26 07:57:10 51°10.342 2°36.857 269.5 11.4 269 -999
2008-09-26 07:57:20 51°10.345 2°36.813 269.5 11.4 269 -999
2008-09-26 07:57:30 51°10.353 2°36.765 269.5 11.4 269 -999
2008-09-26 07:57:40 51°10.363 2°36.714 269.5 11.4 269 -999
2008-09-26 07:57:50 51°10.375 2°36.669 269.5 11.4 269 -999
2008-09-26 07:58:00 51°10.389 2°36.631 297.1 10.9 301 -999
2008-09-26 07:58:10 51°10.408 2°36.588 297.1 10.9 301 -999
2008-09-26 07:58:20 51°10.428 2°36.552 297.1 10.9 301 -999
2008-09-26 07:58:30 51°10.447 2°36.522 297.1 10.9 301 -999
2008-09-26 07:58:40 51°10.473 2°36.49 297.1 10.9 301 -999
2008-09-26 07:58:50 51°10.497 2°36.463 297.1 10.9 301 -999
2008-09-26 07:59:00 51°10.52 2°36.44 327.3 10.9 328 -999
2008-09-26 07:59:10 51°10.546 2°36.417 327.3 10.9 328 -999
2008-09-26 07:59:20 51°10.577 2°36.399 327.3 10.9 328 -999
2008-09-26 07:59:30 51°10.606 2°36.389 327.3 10.9 328 -999
2008-09-26 07:59:40 51°10.632 2°36.384 327.3 10.9 328 -999
2008-09-26 07:59:50 51°10.665 2°36.386 327.3 10.9 328 -999
2008-09-26 08:00:00 51°10.694 2°36.393 5.7 10.8 10 -999
2008-09-26 08:00:10 51°10.724 2°36.403 5.7 10.8 10 -999
2008-09-26 08:00:20 51°10.753 2°36.415 5.7 10.8 10 -999
2008-09-26 08:00:30 51°10.779 2°36.426 5.7 10.8 10 -999
2008-09-26 08:00:40 51°10.809 2°36.439 5.7 10.8 10 -999
2008-09-26 08:00:50 51°10.842 2°36.453 5.7 10.8 10 -999
2008-09-26 08:01:00 51°10.871 2°36.466 15.1 11.19 15 -999
2008-09-26 08:01:10 51°10.898 2°36.477 15.1 11.19 15 -999
2008-09-26 08:01:20 51°10.932 2°36.49 15.1 11.19 15 -999
2008-09-26 08:01:30 51°10.962 2°36.501 15.1 11.19 15 -999
2008-09-26 08:01:40 51°10.989 2°36.509 15.1 11.19 15 -999
2008-09-26 08:01:50 51°11.022 2°36.521 15.1 11.19 15 -999
2008-09-26 08:02:00 51°11.052 2°36.534 13.3 11.19 15 -999
2008-09-26 08:02:10 51°11.082 2°36.546 13.3 11.19 15 -999
2008-09-26 08:02:20 51°11.11 2°36.555 13.3 11.19 15 -999
2008-09-26 08:02:30 51°11.14 2°36.566 13.3 11.19 15 -999
2008-09-26 08:02:40 51°11.173 2°36.577 13.3 11.19 15 -999
2008-09-26 08:02:50 51°11.201 2°36.586 13.3 11.19 15 -999
2008-09-26 08:03:00 51°11.231 2°36.596 11.1 11.19 11 -999
2008-09-26 08:03:10 51°11.264 2°36.607 11.1 11.19 11 -999
2008-09-26 08:03:20 51°11.294 2°36.617 11.1 11.19 11 -999
2008-09-26 08:03:30 51°11.324 2°36.629 11.1 11.19 11 -999
2008-09-26 08:03:40 51°11.355 2°36.64 11.1 11.19 11 -999
2008-09-26 08:03:50 51°11.382 2°36.651 11.1 11.19 11 -999
2008-09-26 08:04:00 51°11.415 2°36.664 13.5 11.19 13 -999
2008-09-26 08:04:10 51°11.445 2°36.675 13.5 11.19 13 -999
2008-09-26 08:04:20 51°11.472 2°36.686 13.5 11.19 13 -999
2008-09-26 08:04:30 51°11.506 2°36.699 13.5 11.19 13 -999
2008-09-26 08:04:40 51°11.536 2°36.711 13.5 11.19 13 -999
2008-09-26 08:04:50 51°11.566 2°36.723 13.5 11.19 13 -999
2008-09-26 08:05:00 51°11.593 2°36.734 14.3 11.19 14 -999
2008-09-26 08:05:10 51°11.623 2°36.746 14.3 11.19 14 -999
2008-09-26 08:05:20 51°11.656 2°36.759 14.3 11.19 14 -999
2008-09-26 08:05:30 51°11.686 2°36.77 14.3 11.19 14 -999
2008-09-26 08:05:40 51°11.716 2°36.782 14.3 11.19 14 -999
2008-09-26 08:05:50 51°11.743 2°36.792 14.3 11.19 14 -999
2008-09-26 08:06:00 51°11.776 2°36.804 12.8 11.19 13 -999
2008-09-26 08:06:10 51°11.806 2°36.816 12.8 11.19 13 -999
2008-09-26 08:06:20 51°11.833 2°36.827 12.8 11.19 13 -999
2008-09-26 08:06:30 51°11.866 2°36.84 12.8 11.19 13 -999
2008-09-26 08:06:40 51°11.896 2°36.852 12.8 11.19 13 -999
2008-09-26 08:06:50 51°11.924 2°36.862 12.8 11.19 13 -999
2008-09-26 08:07:00 51°11.957 2°36.874 12.3 11.09 14 -999
2008-09-26 08:07:10 51°11.987 2°36.886 12.3 11.09 14 -999
2008-09-26 08:07:20 51°12.017 2°36.898 12.3 11.09 14 -999
2008-09-26 08:07:30 51°12.044 2°36.909 12.3 11.09 14 -999
2008-09-26 08:07:40 51°12.077 2°36.921 12.3 11.09 14 -999
2008-09-26 08:07:50 51°12.107 2°36.933 12.3 11.09 14 -999
2008-09-26 08:08:00 51°12.134 2°36.942 12.6 11.19 13 -999
2008-09-26 08:08:10 51°12.164 2°36.955 12.6 11.19 13 -999
2008-09-26 08:08:20 51°12.198 2°36.969 12.6 11.19 13 -999
2008-09-26 08:08:30 51°12.225 2°36.978 12.6 11.19 13 -999
2008-09-26 08:08:40 51°12.258 2°36.991 12.6 11.19 13 -999
2008-09-26 08:08:50 51°12.288 2°37.002 12.6 11.19 13 -999
2008-09-26 08:09:00 51°12.315 2°37.013 12.5 11.09 13 -999
2008-09-26 08:09:10 51°12.345 2°37.024 12.5 11.09 13 -999
2008-09-26 08:09:20 51°12.378 2°37.037 12.5 11.09 13 -999
2008-09-26 08:09:30 51°12.409 2°37.05 12.5 11.09 13 -999
2008-09-26 08:09:40 51°12.436 2°37.062 12.5 11.09 13 -999
2008-09-26 08:09:50 51°12.466 2°37.074 12.5 11.09 13 -999
2008-09-26 08:10:00 51°12.5 2°37.086 12.9 11.3 13 -999
2008-09-26 08:10:10 51°12.53 2°37.098 12.9 11.3 13 -999
2008-09-26 08:10:20 51°12.561 2°37.107 12.9 11.3 13 -999
2008-09-26 08:10:30 51°12.588 2°37.114 12.9 11.3 13 -999
2008-09-26 08:10:40 51°12.623 2°37.122 12.9 11.3 13 -999
2008-09-26 08:10:50 51°12.653 2°37.129 12.9 11.3 13 -999
2008-09-26 08:11:00 51°12.681 2°37.134 6 11.3 7 -999
2008-09-26 08:11:10 51°12.712 2°37.139 6 11.3 7 -999
2008-09-26 08:11:20 51°12.747 2°37.145 6 11.3 7 -999
2008-09-26 08:11:30 51°12.777 2°37.149 6 11.3 7 -999
2008-09-26 08:11:40 51°12.809 2°37.154 6 11.3 7 -999
2008-09-26 08:11:50 51°12.836 2°37.158 6 11.3 7 -999
2008-09-26 08:12:00 51°12.87 2°37.163 4 11.19 5 -999
2008-09-26 08:12:10 51°12.901 2°37.167 4 11.19 5 -999
2008-09-26 08:12:20 51°12.929 2°37.171 4 11.19 5 -999
2008-09-26 08:12:30 51°12.963 2°37.175 4 11.19 5 -999
2008-09-26 08:12:40 51°12.994 2°37.179 4 11.19 5 -999
2008-09-26 08:12:50 51°13.025 2°37.181 4 11.19 5 -999
2008-09-26 08:13:00 51°13.052 2°37.181 0.2 11.09   -999
2008-09-26 08:13:10 51°13.086 2°37.181 0.2 11.09   -999
2008-09-26 08:13:20 51°13.117 2°37.179 0.2 11.09   -999
2008-09-26 08:13:30 51°13.144 2°37.177 0.2 11.09   -999
2008-09-26 08:13:40 51°13.175 2°37.175 0.2 11.09   -999
2008-09-26 08:13:50 51°13.208 2°37.171 0.2 11.09   -999
2008-09-26 08:14:00 51°13.236 2°37.168 354.8 11 355 -999
2008-09-26 08:14:10 51°13.266 2°37.164 354.8 11 355 -999
2008-09-26 08:14:20 51°13.299 2°37.16 354.8 11 355 -999
2008-09-26 08:14:30 51°13.326 2°37.156 354.8 11 355 -999
2008-09-26 08:14:40 51°13.359 2°37.152 354.8 11 355 -999
2008-09-26 08:14:50 51°13.389 2°37.148 354.8 11 355 -999
2008-09-26 08:15:00 51°13.417 2°37.145 355.1 10.9 356 -999
2008-09-26 08:15:10 51°13.447 2°37.141 355.1 10.9 356 -999
2008-09-26 08:15:20 51°13.48 2°37.137 355.1 10.9 356 -999
2008-09-26 08:15:30 51°13.507 2°37.134 355.1 10.9 356 -999
2008-09-26 08:15:40 51°13.537 2°37.131 355.1 10.9 356 -999
2008-09-26 08:15:50 51°13.571 2°37.129 355.1 10.9 356 -999
2008-09-26 08:16:00 51°13.602 2°37.126 357.6 11.19 357 -999
2008-09-26 08:16:10 51°13.633 2°37.123 357.6 11.19 357 -999
2008-09-26 08:16:20 51°13.664 2°37.12 357.6 11.19 357 -999
2008-09-26 08:16:30 51°13.695 2°37.117 357.6 11.19 357 -999
2008-09-26 08:16:40 51°13.726 2°37.114 357.6 11.19 357 -999
2008-09-26 08:16:50 51°13.757 2°37.11 357.6 11.19 357 -999
2008-09-26 08:17:00 51°13.785 2°37.107 355.8 11.09 356 -999
2008-09-26 08:17:10 51°13.819 2°37.103 355.8 11.09 356 -999
2008-09-26 08:17:20 51°13.85 2°37.1 355.8 11.09 356 -999
2008-09-26 08:17:30 51°13.878 2°37.096 355.8 11.09 356 -999
2008-09-26 08:17:40 51°13.912 2°37.091 355.8 11.09 356 -999
2008-09-26 08:17:50 51°13.944 2°37.085 355.8 11.09 356 -999
2008-09-26 08:18:00 51°13.975 2°37.08 353.8 11.3 355 -999
2008-09-26 08:18:10 51°14.006 2°37.076 353.8 11.3 355 -999
2008-09-26 08:18:20 51°14.037 2°37.073 353.8 11.3 355 -999
2008-09-26 08:18:30 51°14.065 2°37.072 353.8 11.3 355 -999
2008-09-26 08:18:40 51°14.097 2°37.07 353.8 11.3 355 -999
2008-09-26 08:18:50 51°14.131 2°37.067 353.8 11.3 355 -999
2008-09-26 08:19:00 51°14.159 2°37.066 357.3 11.3 357 -999
2008-09-26 08:19:10 51°14.194 2°37.063 357.3 11.3 357 -999
2008-09-26 08:19:20 51°14.225 2°37.059 357.3 11.3 357 -999
2008-09-26 08:19:30 51°14.256 2°37.055 357.3 11.3 357 -999
2008-09-26 08:19:40 51°14.287 2°37.051 357.3 11.3 357 -999
2008-09-26 08:19:50 51°14.319 2°37.048 357.3 11.3 357 -999
2008-09-26 08:20:00 51°14.349 2°37.044 354.3 11.19 355 -999
2008-09-26 08:20:10 51°14.377 2°37.041 354.3 11.19 355 -999
2008-09-26 08:20:20 51°14.412 2°37.038 354.3 11.19 355 -999
2008-09-26 08:20:30 51°14.443 2°37.036 354.3 11.19 355 -999
2008-09-26 08:20:40 51°14.47 2°37.033 354.3 11.19 355 -999
2008-09-26 08:20:50 51°14.504 2°37.028 354.3 11.19 355 -999
2008-09-26 08:21:00 51°14.535 2°37.022 352.8 11.19 353 -999
2008-09-26 08:21:10 51°14.562 2°37.016 352.8 11.19 353 -999
2008-09-26 08:21:20 51°14.596 2°37.01 352.8 11.19 353 -999
2008-09-26 08:21:30 51°14.627 2°37.004 352.8 11.19 353 -999
2008-09-26 08:21:40 51°14.658 2°36.998 352.8 11.19 353 -999
2008-09-26 08:21:50 51°14.688 2°36.993 352.8 11.19 353 -999
2008-09-26 08:22:00 51°14.719 2°36.989 353.3 11.19 356 -999
2008-09-26 08:22:10 51°14.75 2°36.986 353.3 11.19 356 -999
2008-09-26 08:22:20 51°14.781 2°36.984 353.3 11.19 356 -999
2008-09-26 08:22:30 51°14.812 2°36.982 353.3 11.19 356 -999
2008-09-26 08:22:40 51°14.843 2°36.978 353.3 11.19 356 -999
2008-09-26 08:22:50 51°14.871 2°36.976 353.3 11.19 356 -999
2008-09-26 08:23:00 51°14.905 2°36.972 354.8 11.19 356 -999
2008-09-26 08:23:10 51°14.936 2°36.968 354.8 11.19 356 -999
2008-09-26 08:23:20 51°14.967 2°36.964 354.8 11.19 356 -999
2008-09-26 08:23:30 51°14.995 2°36.96 354.8 11.19 356 -999
2008-09-26 08:23:40 51°15.029 2°36.956 354.8 11.19 356 -999
2008-09-26 08:23:50 51°15.06 2°36.952 354.8 11.19 356 -999
2008-09-26 08:24:00 51°15.092 2°36.948 353.3 11.3 356 -999
2008-09-26 08:24:10 51°15.123 2°36.944 353.3 11.3 356 -999
2008-09-26 08:24:20 51°15.154 2°36.94 353.3 11.3 356 -999
2008-09-26 08:24:30 51°15.185 2°36.936 353.3 11.3 356 -999
2008-09-26 08:24:40 51°15.217 2°36.931 353.3 11.3 356 -999
2008-09-26 08:24:50 51°15.248 2°36.928 353.3 11.3 356 -999
2008-09-26 08:25:00 51°15.28 2°36.924 354.1 11.4 356 -999
2008-09-26 08:25:10 51°15.311 2°36.92 354.1 11.4 356 -999
2008-09-26 08:25:20 51°15.342 2°36.917 354.1 11.4 356 -999
2008-09-26 08:25:30 51°15.374 2°36.914 354.1 11.4 356 -999
2008-09-26 08:25:40 51°15.405 2°36.911 354.1 11.4 356 -999
2008-09-26 08:25:50 51°15.436 2°36.907 354.1 11.4 356 -999
2008-09-26 08:26:00 51°15.467 2°36.904 353.5 11.19 356 -999
2008-09-26 08:26:10 51°15.498 2°36.9 353.5 11.19 356 -999
2008-09-26 08:26:20 51°15.53 2°36.897 353.5 11.19 356 -999
2008-09-26 08:26:30 51°15.558 2°36.893 353.5 11.19 356 -999
2008-09-26 08:26:40 51°15.591 2°36.888 353.5 11.19 356 -999
2008-09-26 08:26:50 51°15.622 2°36.884 353.5 11.19 356 -999
2008-09-26 08:27:00 51°15.653 2°36.879 353.6 11.19 356 -999
2008-09-26 08:27:10 51°15.684 2°36.875 353.6 11.19 356 -999
2008-09-26 08:27:20 51°15.716 2°36.87 353.6 11.19 356 -999
2008-09-26 08:27:30 51°15.747 2°36.866 353.6 11.19 356 -999
2008-09-26 08:27:40 51°15.778 2°36.861 353.6 11.19 356 -999
2008-09-26 08:27:50 51°15.809 2°36.856 353.6 11.19 356 -999
2008-09-26 08:28:00 51°15.84 2°36.852 354.1 11.4 355 -999
2008-09-26 08:28:10 51°15.872 2°36.846 354.1 11.4 355 -999
2008-09-26 08:28:20 51°15.903 2°36.842 354.1 11.4 355 -999
2008-09-26 08:28:30 51°15.935 2°36.836 354.1 11.4 355 -999
2008-09-26 08:28:40 51°15.966 2°36.83 354.1 11.4 355 -999
2008-09-26 08:28:50 51°15.995 2°36.824 354.1 11.4 355 -999
2008-09-26 08:29:00 51°16.022 2°36.82 354.5 9.9 355 -999
2008-09-26 08:29:10 51°16.049 2°36.818 354.5 9.9 355 -999
2008-09-26 08:29:20 51°16.074 2°36.816 354.5 9.9 355 -999
2008-09-26 08:29:30 51°16.1 2°36.815 354.5 9.9 355 -999
2008-09-26 08:29:40 51°16.125 2°36.813 354.5 9.9 355 -999
2008-09-26 08:29:50 51°16.149 2°36.812 354.5 9.9 355 -999
2008-09-26 08:30:00 51°16.174 2°36.81 357.6 8.9 357 -999
2008-09-26 08:30:10 51°16.198 2°36.808 357.6 8.9 357 -999
2008-09-26 08:30:20 51°16.223 2°36.807 357.6 8.9 357 -999
2008-09-26 08:30:30 51°16.248 2°36.806 357.6 8.9 357 -999
2008-09-26 08:30:40 51°16.272 2°36.804 357.6 8.9 357 -999
2008-09-26 08:30:50 51°16.297 2°36.803 357.6 8.9 357 -999
2008-09-26 08:31:00 51°16.322 2°36.801 357.3 8.9 357 -999
2008-09-26 08:31:10 51°16.346 2°36.799 357.3 8.9 357 -999
2008-09-26 08:31:20 51°16.369 2°36.798 357.3 8.9 357 -999
2008-09-26 08:31:30 51°16.389 2°36.798 357.3 8.9 357 -999
2008-09-26 08:31:40 51°16.407 2°36.799 357.3 8.9 357 -999
2008-09-26 08:31:50 51°16.423 2°36.801 357.3 8.9 357 -999
2008-09-26 08:32:00 51°16.437 2°36.803 3.7 4.9 4 -999
2008-09-26 08:32:10 51°16.449 2°36.804 3.7 4.9 4 -999
2008-09-26 08:32:20 51°16.46 2°36.805 3.7 4.9 4 -999
2008-09-26 08:32:30 51°16.47 2°36.802 3.7 4.9 4 -999
2008-09-26 08:32:40 51°16.479 2°36.8 3.7 4.9 4 -999
2008-09-26 08:32:50 51°16.488 2°36.797 3.7 4.9 4 -999
2008-09-26 08:33:00 51°16.495 2°36.793 343.6 2.79 344 -999
2008-09-26 08:33:10 51°16.502 2°36.79 343.6 2.79 344 -999
2008-09-26 08:33:20 51°16.509 2°36.787 343.6 2.79 344 -999
2008-09-26 08:33:30 51°16.516 2°36.785 343.6 2.79 344 -999
2008-09-26 08:33:40 51°16.522 2°36.783 343.6 2.79 344 -999
2008-09-26 08:33:50 51°16.528 2°36.781 343.6 2.79 344 -999
2008-09-26 08:34:00 51°16.534 2°36.779 349.6 2 349 -999
2008-09-26 08:34:10 51°16.54 2°36.778 349.6 2 349 -999
2008-09-26 08:34:20 51°16.545 2°36.776 349.6 2 349 -999
2008-09-26 08:34:30 51°16.55 2°36.774 349.6 2 349 -999
2008-09-26 08:34:40 51°16.555 2°36.773 349.6 2 349 -999
2008-09-26 08:34:50 51°16.56 2°36.772 349.6 2 349 -999
2008-09-26 08:35:00 51°16.564 2°36.771 354.1 1.69 355 -999
2008-09-26 08:35:10 51°16.569 2°36.771 354.1 1.69 355 -999
2008-09-26 08:35:20 51°16.573 2°36.77 354.1 1.69 355 -999
2008-09-26 08:35:30 51°16.576 2°36.769 354.1 1.69 355 -999
2008-09-26 08:35:40 51°16.58 2°36.769 354.1 1.69 355 -999
2008-09-26 08:35:50 51°16.583 2°36.768 354.1 1.69 355 -999
2008-09-26 08:36:00 51°16.586 2°36.768 357.3 1.1 356 -999
2008-09-26 08:36:10 51°16.589 2°36.768 357.3 1.1 356 -999
2008-09-26 08:36:20 51°16.592 2°36.768 357.3 1.1 356 -999
2008-09-26 08:36:30 51°16.594 2°36.768 357.3 1.1 356 -999
2008-09-26 08:36:40 51°16.596 2°36.767 357.3 1.1 356 -999
2008-09-26 08:36:50 51°16.598 2°36.767 357.3 1.1 356 -999
2008-09-26 08:37:00 51°16.601 2°36.767 2.1 0.69 355 -999
2008-09-26 08:37:10 51°16.602 2°36.766 2.1 0.69 355 -999
2008-09-26 08:37:20 51°16.604 2°36.766 2.1 0.69 355 -999
2008-09-26 08:37:30 51°16.605 2°36.765 2.1 0.69 355 -999
2008-09-26 08:37:40 51°16.607 2°36.765 2.1 0.69 355 -999
2008-09-26 08:37:50 51°16.608 2°36.764 2.1 0.69 355 -999
2008-09-26 08:38:00 51°16.609 2°36.764 3.6 0.4 352 -999
2008-09-26 08:38:10 51°16.61 2°36.763 3.6 0.4 352 -999
2008-09-26 08:38:20 51°16.611 2°36.762 3.6 0.4 352 -999
2008-09-26 08:38:30 51°16.612 2°36.762 3.6 0.4 352 -999
2008-09-26 08:38:40 51°16.613 2°36.761 3.6 0.4 352 -999
2008-09-26 08:38:50 51°16.614 2°36.76 3.6 0.4 352 -999
2008-09-26 08:39:00 51°16.615 2°36.76 2 0.4 333 -999
2008-09-26 08:39:10 51°16.616 2°36.759 2 0.4 333 -999
2008-09-26 08:39:20 51°16.617 2°36.759 2 0.4 333 -999
2008-09-26 08:39:30 51°16.618 2°36.758 2 0.4 333 -999
2008-09-26 08:39:40 51°16.619 2°36.757 2 0.4 333 -999
2008-09-26 08:39:50 51°16.619 2°36.756 2 0.4 333 -999
2008-09-26 08:40:00 51°16.619 2°36.755 358.1 0.2 293 -999
2008-09-26 08:40:10 51°16.62 2°36.754 358.1 0.2 293 -999
2008-09-26 08:40:20 51°16.62 2°36.753 358.1 0.2 293 -999
2008-09-26 08:40:30 51°16.62 2°36.753 358.1 0.2 293 -999
2008-09-26 08:40:40 51°16.62 2°36.752 358.1 0.2 293 -999
2008-09-26 08:40:50 51°16.62 2°36.751 358.1 0.2 293 -999
2008-09-26 08:41:00 51°16.622 2°36.749 346.6 0.9 335 -999
2008-09-26 08:41:10 51°16.625 2°36.747 346.6 0.9 335 -999
2008-09-26 08:41:20 51°16.63 2°36.743 346.6 0.9 335 -999
2008-09-26 08:41:30 51°16.635 2°36.738 346.6 0.9 335 -999
2008-09-26 08:41:40 51°16.641 2°36.73 346.6 0.9 335 -999
2008-09-26 08:41:50 51°16.647 2°36.72 346.6 0.9 335 -999
2008-09-26 08:42:00 51°16.654 2°36.707 309.8 4.4 311 -999
2008-09-26 08:42:10 51°16.664 2°36.691 309.8 4.4 311 -999
2008-09-26 08:42:20 51°16.676 2°36.671 309.8 4.4 311 -999
2008-09-26 08:42:30 51°16.691 2°36.647 309.8 4.4 311 -999
2008-09-26 08:42:40 51°16.707 2°36.619 309.8 4.4 311 -999
2008-09-26 08:42:50 51°16.724 2°36.588 309.8 4.4 311 -999
2008-09-26 08:43:00 51°16.742 2°36.556 310.3 9.8 311 -999
2008-09-26 08:43:10 51°16.76 2°36.523 310.3 9.8 311 -999
2008-09-26 08:43:20 51°16.779 2°36.489 310.3 9.8 311 -999
2008-09-26 08:43:30 51°16.798 2°36.454 310.3 9.8 311 -999
2008-09-26 08:43:40 51°16.817 2°36.42 310.3 9.8 311 -999
2008-09-26 08:43:50 51°16.836 2°36.385 310.3 9.8 311 -999
2008-09-26 08:44:00 51°16.855 2°36.35 309.8 10.5 311 -999
2008-09-26 08:44:10 51°16.874 2°36.314 309.8 10.5 311 -999
2008-09-26 08:44:20 51°16.893 2°36.278 309.8 10.5 311 -999
2008-09-26 08:44:30 51°16.911 2°36.243 309.8 10.5 311 -999
2008-09-26 08:44:40 51°16.93 2°36.207 309.8 10.5 311 -999
2008-09-26 08:44:50 51°16.948 2°36.171 309.8 10.5 311 -999
2008-09-26 08:45:00 51°16.966 2°36.135 307.8 10.3 309 -999
2008-09-26 08:45:10 51°16.984 2°36.1 307.8 10.3 309 -999
2008-09-26 08:45:20 51°17.001 2°36.064 307.8 10.3 309 -999
2008-09-26 08:45:30 51°17.02 2°36.028 307.8 10.3 309 -999
2008-09-26 08:45:40 51°17.037 2°35.993 307.8 10.3 309 -999
2008-09-26 08:45:50 51°17.056 2°35.957 307.8 10.3 309 -999
2008-09-26 08:46:00 51°17.074 2°35.922 307.5 10.3 310 -999
2008-09-26 08:46:10 51°17.092 2°35.887 307.5 10.3 310 -999
2008-09-26 08:46:20 51°17.11 2°35.852 307.5 10.3 310 -999
2008-09-26 08:46:30 51°17.128 2°35.817 307.5 10.3 310 -999
2008-09-26 08:46:40 51°17.146 2°35.782 307.5 10.3 310 -999
2008-09-26 08:46:50 51°17.163 2°35.746 307.5 10.3 310 -999
2008-09-26 08:47:00 51°17.181 2°35.711 306.8 10.09 308 -999
2008-09-26 08:47:10 51°17.198 2°35.676 306.8 10.09 308 -999
2008-09-26 08:47:20 51°17.216 2°35.641 306.8 10.09 308 -999
2008-09-26 08:47:30 51°17.233 2°35.606 306.8 10.09 308 -999
2008-09-26 08:47:40 51°17.251 2°35.571 306.8 10.09 308 -999
2008-09-26 08:47:50 51°17.268 2°35.536 306.8 10.09 308 -999
2008-09-26 08:48:00 51°17.285 2°35.502 306.1 10.09 308 -999
2008-09-26 08:48:10 51°17.302 2°35.467 306.1 10.09 308 -999
2008-09-26 08:48:20 51°17.319 2°35.432 306.1 10.09 308 -999
2008-09-26 08:48:30 51°17.336 2°35.398 306.1 10.09 308 -999
2008-09-26 08:48:40 51°17.353 2°35.364 306.1 10.09 308 -999
2008-09-26 08:48:50 51°17.371 2°35.33 306.1 10.09 308 -999
2008-09-26 08:49:00 51°17.388 2°35.297 306.8 9.9 309 -999
2008-09-26 08:49:10 51°17.406 2°35.263 306.8 9.9 309 -999
2008-09-26 08:49:20 51°17.423 2°35.228 306.8 9.9 309 -999
2008-09-26 08:49:30 51°17.44 2°35.193 306.8 9.9 309 -999
2008-09-26 08:49:40 51°17.458 2°35.158 306.8 9.9 309 -999
2008-09-26 08:49:50 51°17.475 2°35.124 306.8 9.9 309 -999
2008-09-26 08:50:00 51°17.492 2°35.089 306.1 9.8 308 -999
2008-09-26 08:50:10 51°17.508 2°35.055 306.1 9.8 308 -999
2008-09-26 08:50:20 51°17.525 2°35.02 306.1 9.8 308 -999
2008-09-26 08:50:30 51°17.542 2°34.984 306.1 9.8 308 -999
2008-09-26 08:50:40 51°17.558 2°34.949 306.1 9.8 308 -999
2008-09-26 08:50:50 51°17.575 2°34.914 306.1 9.8 308 -999
2008-09-26 08:51:00 51°17.592 2°34.879 305.1 10 307 -999
2008-09-26 08:51:10 51°17.61 2°34.844 305.1 10 307 -999
2008-09-26 08:51:20 51°17.627 2°34.81 305.1 10 307 -999
2008-09-26 08:51:30 51°17.644 2°34.775 305.1 10 307 -999
2008-09-26 08:51:40 51°17.661 2°34.741 305.1 10 307 -999
2008-09-26 08:51:50 51°17.679 2°34.706 305.1 10 307 -999
2008-09-26 08:52:00 51°17.697 2°34.672 305.6 10.09 310 -999
2008-09-26 08:52:10 51°17.714 2°34.637 305.6 10.09 310 -999
2008-09-26 08:52:20 51°17.732 2°34.601 305.6 10.09 310 -999
2008-09-26 08:52:30 51°17.749 2°34.565 305.6 10.09 310 -999
2008-09-26 08:52:40 51°17.767 2°34.529 305.6 10.09 310 -999
2008-09-26 08:52:50 51°17.785 2°34.493 305.6 10.09 310 -999
2008-09-26 08:53:00 51°17.803 2°34.457 305.5 10.4 308 -999
2008-09-26 08:53:10 51°17.821 2°34.421 305.5 10.4 308 -999
2008-09-26 08:53:20 51°17.839 2°34.385 305.5 10.4 308 -999
2008-09-26 08:53:30 51°17.857 2°34.35 305.5 10.4 308 -999
2008-09-26 08:53:40 51°17.875 2°34.314 305.5 10.4 308 -999
2008-09-26 08:53:50 51°17.893 2°34.278 305.5 10.4 308 -999
2008-09-26 08:54:00 51°17.911 2°34.242 304.8 10.5 309 -999
2008-09-26 08:54:10 51°17.93 2°34.206 304.8 10.5 309 -999
2008-09-26 08:54:20 51°17.949 2°34.171 304.8 10.5 309 -999
2008-09-26 08:54:30 51°17.967 2°34.136 304.8 10.5 309 -999
2008-09-26 08:54:40 51°17.985 2°34.1 304.8 10.5 309 -999
2008-09-26 08:54:50 51°18.003 2°34.064 304.8 10.5 309 -999
2008-09-26 08:55:00 51°18.021 2°34.028 305.5 10.5 309 -999
2008-09-26 08:55:10 51°18.04 2°33.993 305.5 10.5 309 -999
2008-09-26 08:55:20 51°18.058 2°33.957 305.5 10.5 309 -999
2008-09-26 08:55:30 51°18.076 2°33.921 305.5 10.5 309 -999
2008-09-26 08:55:40 51°18.094 2°33.884 305.5 10.5 309 -999
2008-09-26 08:55:50 51°18.112 2°33.847 305.5 10.5 309 -999
2008-09-26 08:56:00 51°18.129 2°33.81 303.3 10.5 307 -999
2008-09-26 08:56:10 51°18.147 2°33.774 303.3 10.5 307 -999
2008-09-26 08:56:20 51°18.164 2°33.736 303.3 10.5 307 -999
2008-09-26 08:56:30 51°18.181 2°33.699 303.3 10.5 307 -999
2008-09-26 08:56:40 51°18.199 2°33.663 303.3 10.5 307 -999
2008-09-26 08:56:50 51°18.216 2°33.626 303.3 10.5 307 -999
2008-09-26 08:57:00 51°18.233 2°33.589 303.5 10.4 306 -999
2008-09-26 08:57:10 51°18.251 2°33.552 303.5 10.4 306 -999
2008-09-26 08:57:20 51°18.268 2°33.516 303.5 10.4 306 -999
2008-09-26 08:57:30 51°18.286 2°33.479 303.5 10.4 306 -999
2008-09-26 08:57:40 51°18.303 2°33.442 303.5 10.4 306 -999
2008-09-26 08:57:50 51°18.32 2°33.405 303.5 10.4 306 -999
2008-09-26 08:58:00 51°18.337 2°33.368 303.3 10.3 304 -999
2008-09-26 08:58:10 51°18.354 2°33.331 303.3 10.3 304 -999
2008-09-26 08:58:20 51°18.371 2°33.294 303.3 10.3 304 -999
2008-09-26 08:58:30 51°18.388 2°33.257 303.3 10.3 304 -999
2008-09-26 08:58:40 51°18.405 2°33.22 303.3 10.3 304 -999
2008-09-26 08:58:50 51°18.422 2°33.183 303.3 10.3 304 -999
2008-09-26 08:59:00 51°18.439 2°33.145 303.3 10.5 306 -999
2008-09-26 08:59:10 51°18.456 2°33.107 303.3 10.5 306 -999
2008-09-26 08:59:20 51°18.474 2°33.07 303.3 10.5 306 -999
2008-09-26 08:59:30 51°18.491 2°33.032 303.3 10.5 306 -999
2008-09-26 08:59:40 51°18.508 2°32.994 303.3 10.5 306 -999
2008-09-26 08:59:50 51°18.524 2°32.955 303.3 10.5 306 -999
2008-09-26 09:00:00 51°18.541 2°32.917 302.3 10.5 304 -999
2008-09-26 09:00:10 51°18.558 2°32.879 302.3 10.5 304 -999
2008-09-26 09:00:20 51°18.575 2°32.841 302.3 10.5 304 -999
2008-09-26 09:00:30 51°18.592 2°32.803 302.3 10.5 304 -999
2008-09-26 09:00:40 51°18.609 2°32.765 302.3 10.5 304 -999
2008-09-26 09:00:50 51°18.627 2°32.727 302.3 10.5 304 -999
2008-09-26 09:01:00 51°18.644 2°32.689 304.1 10.69 306 -999
2008-09-26 09:01:10 51°18.662 2°32.651 304.1 10.69 306 -999
2008-09-26 09:01:20 51°18.68 2°32.613 304.1 10.69 306 -999
2008-09-26 09:01:30 51°18.697 2°32.575 304.1 10.69 306 -999
2008-09-26 09:01:40 51°18.715 2°32.537 304.1 10.69 306 -999
2008-09-26 09:01:50 51°18.732 2°32.499 304.1 10.69 306 -999
2008-09-26 09:02:00 51°18.749 2°32.46 303.3 10.59 305 -999
2008-09-26 09:02:10 51°18.766 2°32.422 303.3 10.59 305 -999
2008-09-26 09:02:20 51°18.783 2°32.383 303.3 10.59 305 -999
2008-09-26 09:02:30 51°18.8 2°32.345 303.3 10.59 305 -999
2008-09-26 09:02:40 51°18.818 2°32.307 303.3 10.59 305 -999
2008-09-26 09:02:50 51°18.836 2°32.268 303.3 10.59 305 -999
2008-09-26 09:03:00 51°18.854 2°32.23 304.6 10.69 307 -999
2008-09-26 09:03:10 51°18.871 2°32.193 304.6 10.69 307 -999
2008-09-26 09:03:20 51°18.889 2°32.155 304.6 10.69 307 -999
2008-09-26 09:03:30 51°18.907 2°32.117 304.6 10.69 307 -999
2008-09-26 09:03:40 51°18.925 2°32.078 304.6 10.69 307 -999
2008-09-26 09:03:50 51°18.942 2°32.039 304.6 10.69 307 -999
2008-09-26 09:04:00 51°18.959 2°32 304.1 10.8 305 -999
2008-09-26 09:04:10 51°18.977 2°31.961 304.1 10.8 305 -999
2008-09-26 09:04:20 51°18.994 2°31.923 304.1 10.8 305 -999
2008-09-26 09:04:30 51°19.012 2°31.885 304.1 10.8 305 -999
2008-09-26 09:04:40 51°19.029 2°31.847 304.1 10.8 305 -999
2008-09-26 09:04:50 51°19.047 2°31.809 304.1 10.8 305 -999
2008-09-26 09:05:00 51°19.064 2°31.771 304.3 10.5 305 -999
2008-09-26 09:05:10 51°19.081 2°31.734 304.3 10.5 305 -999
2008-09-26 09:05:20 51°19.099 2°31.697 304.3 10.5 305 -999
2008-09-26 09:05:30 51°19.116 2°31.66 304.3 10.5 305 -999
2008-09-26 09:05:40 51°19.133 2°31.623 304.3 10.5 305 -999
2008-09-26 09:05:50 51°19.15 2°31.586 304.3 10.5 305 -999
2008-09-26 09:06:00 51°19.168 2°31.55 304.6 10.4 307 -999
2008-09-26 09:06:10 51°19.185 2°31.514 304.6 10.4 307 -999
2008-09-26 09:06:20 51°19.203 2°31.477 304.6 10.4 307 -999
2008-09-26 09:06:30 51°19.22 2°31.44 304.6 10.4 307 -999
2008-09-26 09:06:40 51°19.237 2°31.404 304.6 10.4 307 -999
2008-09-26 09:06:50 51°19.255 2°31.368 304.6 10.4 307 -999
2008-09-26 09:07:00 51°19.272 2°31.331 304.6 10.4 305 -999
2008-09-26 09:07:10 51°19.29 2°31.294 304.6 10.4 305 -999
2008-09-26 09:07:20 51°19.308 2°31.258 304.6 10.4 305 -999
2008-09-26 09:07:30 51°19.326 2°31.222 304.6 10.4 305 -999
2008-09-26 09:07:40 51°19.345 2°31.186 304.6 10.4 305 -999
2008-09-26 09:07:50 51°19.363 2°31.151 304.6 10.4 305 -999
2008-09-26 09:08:00 51°19.382 2°31.114 304.1 10.59 309 -999
2008-09-26 09:08:10 51°19.4 2°31.078 304.1 10.59 309 -999
2008-09-26 09:08:20 51°19.418 2°31.042 304.1 10.59 309 -999
2008-09-26 09:08:30 51°19.437 2°31.005 304.1 10.59 309 -999
2008-09-26 09:08:40 51°19.455 2°30.97 304.1 10.59 309 -999
2008-09-26 09:08:50 51°19.473 2°30.934 304.1 10.59 309 -999
2008-09-26 09:09:00 51°19.492 2°30.899 304.1 10.3 312 -999
2008-09-26 09:09:10 51°19.51 2°30.864 304.1 10.3 312 -999
2008-09-26 09:09:20 51°19.528 2°30.829 304.1 10.3 312 -999
2008-09-26 09:09:30 51°19.546 2°30.794 304.1 10.3 312 -999
2008-09-26 09:09:40 51°19.564 2°30.759 304.1 10.3 312 -999
2008-09-26 09:09:50 51°19.581 2°30.725 304.1 10.3 312 -999
2008-09-26 09:10:00 51°19.6 2°30.69 305 10.09 308 -999
2008-09-26 09:10:10 51°19.617 2°30.656 305 10.09 308 -999